sensor_id;sensor_type;location;lat;lon;timestamp;P1;durP1;ratioP1;P2;durP2;ratioP2
72388;SDS011;60566;48.062;9.930;2023-06-10T00:00:34;13.85;;;9.18;;
72388;SDS011;60566;48.062;9.930;2023-06-10T00:03:01;12.95;;;8.95;;
72388;SDS011;60566;48.062;9.930;2023-06-10T00:05:27;14.07;;;9.35;;
72388;SDS011;60566;48.062;9.930;2023-06-10T00:07:52;13.02;;;9.15;;
72388;SDS011;60566;48.062;9.930;2023-06-10T00:10:17;14.30;;;9.77;;
72388;SDS011;60566;48.062;9.930;2023-06-10T00:12:43;15.07;;;9.95;;
72388;SDS011;60566;48.062;9.930;2023-06-10T00:15:08;14.27;;;9.00;;
72388;SDS011;60566;48.062;9.930;2023-06-10T00:17:34;16.75;;;9.80;;
72388;SDS011;60566;48.062;9.930;2023-06-10T00:20:01;14.82;;;9.48;;
72388;SDS011;60566;48.062;9.930;2023-06-10T00:22:27;14.95;;;10.73;;
72388;SDS011;60566;48.062;9.930;2023-06-10T00:24:52;16.23;;;10.43;;
72388;SDS011;60566;48.062;9.930;2023-06-10T00:27:18;16.05;;;10.77;;
72388;SDS011;60566;48.062;9.930;2023-06-10T00:29:43;15.73;;;11.07;;
72388;SDS011;60566;48.062;9.930;2023-06-10T00:32:08;14.98;;;10.20;;
72388;SDS011;60566;48.062;9.930;2023-06-10T00:34:34;14.07;;;10.23;;
72388;SDS011;60566;48.062;9.930;2023-06-10T00:37:01;15.18;;;9.98;;
72388;SDS011;60566;48.062;9.930;2023-06-10T00:39:26;15.40;;;10.30;;
72388;SDS011;60566;48.062;9.930;2023-06-10T00:41:52;14.63;;;10.38;;
72388;SDS011;60566;48.062;9.930;2023-06-10T00:44:17;15.98;;;10.13;;
72388;SDS011;60566;48.062;9.930;2023-06-10T00:46:42;15.82;;;11.07;;
72388;SDS011;60566;48.062;9.930;2023-06-10T00:49:08;16.17;;;10.30;;
72388;SDS011;60566;48.062;9.930;2023-06-10T00:51:33;15.15;;;9.93;;
72388;SDS011;60566;48.062;9.930;2023-06-10T00:54:00;13.90;;;9.80;;
72388;SDS011;60566;48.062;9.930;2023-06-10T00:56:26;15.27;;;9.90;;
72388;SDS011;60566;48.062;9.930;2023-06-10T00:58:52;15.68;;;10.43;;
72388;SDS011;60566;48.062;9.930;2023-06-10T01:01:17;16.63;;;11.02;;
72388;SDS011;60566;48.062;9.930;2023-06-10T01:03:42;15.38;;;10.35;;
72388;SDS011;60566;48.062;9.930;2023-06-10T01:06:09;14.05;;;10.90;;
72388;SDS011;60566;48.062;9.930;2023-06-10T01:08:40;15.63;;;10.57;;
72388;SDS011;60566;48.062;9.930;2023-06-10T01:11:13;15.35;;;11.43;;
72388;SDS011;60566;48.062;9.930;2023-06-10T01:13:44;16.73;;;11.13;;
72388;SDS011;60566;48.062;9.930;2023-06-10T01:16:10;16.08;;;10.40;;
72388;SDS011;60566;48.062;9.930;2023-06-10T01:18:36;13.70;;;10.45;;
72388;SDS011;60566;48.062;9.930;2023-06-10T01:21:02;19.23;;;10.88;;
72388;SDS011;60566;48.062;9.930;2023-06-10T01:23:28;15.63;;;9.85;;
72388;SDS011;60566;48.062;9.930;2023-06-10T01:25:55;16.40;;;11.43;;
72388;SDS011;60566;48.062;9.930;2023-06-10T01:28:27;16.52;;;11.90;;
72388;SDS011;60566;48.062;9.930;2023-06-10T01:30:59;18.95;;;10.95;;
72388;SDS011;60566;48.062;9.930;2023-06-10T01:33:36;14.02;;;9.93;;
72388;SDS011;60566;48.062;9.930;2023-06-10T01:36:04;15.18;;;10.95;;
72388;SDS011;60566;48.062;9.930;2023-06-10T01:38:32;17.67;;;12.20;;
72388;SDS011;60566;48.062;9.930;2023-06-10T01:40:58;16.00;;;10.57;;
72388;SDS011;60566;48.062;9.930;2023-06-10T01:43:25;15.57;;;11.15;;
72388;SDS011;60566;48.062;9.930;2023-06-10T01:45:50;15.32;;;11.75;;
72388;SDS011;60566;48.062;9.930;2023-06-10T01:48:16;16.00;;;11.00;;
72388;SDS011;60566;48.062;9.930;2023-06-10T01:50:41;16.60;;;10.85;;
72388;SDS011;60566;48.062;9.930;2023-06-10T01:53:06;17.42;;;11.23;;
72388;SDS011;60566;48.062;9.930;2023-06-10T01:55:33;15.82;;;10.75;;
72388;SDS011;60566;48.062;9.930;2023-06-10T01:57:58;16.65;;;11.35;;
72388;SDS011;60566;48.062;9.930;2023-06-10T02:00:24;16.85;;;12.02;;
72388;SDS011;60566;48.062;9.930;2023-06-10T02:02:49;14.40;;;11.13;;
72388;SDS011;60566;48.062;9.930;2023-06-10T02:05:15;15.80;;;11.68;;
72388;SDS011;60566;48.062;9.930;2023-06-10T02:07:40;17.00;;;11.95;;
72388;SDS011;60566;48.062;9.930;2023-06-10T02:10:06;16.67;;;11.70;;
72388;SDS011;60566;48.062;9.930;2023-06-10T02:12:33;15.15;;;10.73;;
72388;SDS011;60566;48.062;9.930;2023-06-10T02:14:59;16.88;;;11.32;;
72388;SDS011;60566;48.062;9.930;2023-06-10T02:17:24;15.43;;;11.27;;
72388;SDS011;60566;48.062;9.930;2023-06-10T02:19:49;15.85;;;10.15;;
72388;SDS011;60566;48.062;9.930;2023-06-10T02:22:15;16.25;;;11.30;;
72388;SDS011;60566;48.062;9.930;2023-06-10T02:24:40;16.55;;;11.43;;
72388;SDS011;60566;48.062;9.930;2023-06-10T02:27:06;17.15;;;11.27;;
72388;SDS011;60566;48.062;9.930;2023-06-10T02:29:32;17.58;;;11.10;;
72388;SDS011;60566;48.062;9.930;2023-06-10T02:31:58;14.30;;;10.43;;
72388;SDS011;60566;48.062;9.930;2023-06-10T02:34:23;17.30;;;11.50;;
72388;SDS011;60566;48.062;9.930;2023-06-10T02:36:49;19.60;;;12.27;;
72388;SDS011;60566;48.062;9.930;2023-06-10T02:39:14;15.32;;;10.27;;
72388;SDS011;60566;48.062;9.930;2023-06-10T02:41:39;16.73;;;11.80;;
72388;SDS011;60566;48.062;9.930;2023-06-10T02:44:05;17.67;;;11.02;;
72388;SDS011;60566;48.062;9.930;2023-06-10T02:46:31;20.63;;;11.65;;
72388;SDS011;60566;48.062;9.930;2023-06-10T02:48:57;22.20;;;12.70;;
72388;SDS011;60566;48.062;9.930;2023-06-10T02:51:22;17.70;;;11.85;;
72388;SDS011;60566;48.062;9.930;2023-06-10T02:53:48;19.13;;;11.77;;
72388;SDS011;60566;48.062;9.930;2023-06-10T02:56:13;15.00;;;11.80;;
72388;SDS011;60566;48.062;9.930;2023-06-10T02:58:40;18.40;;;12.07;;
72388;SDS011;60566;48.062;9.930;2023-06-10T03:01:06;16.25;;;11.18;;
72388;SDS011;60566;48.062;9.930;2023-06-10T03:03:32;16.17;;;11.32;;
72388;SDS011;60566;48.062;9.930;2023-06-10T03:05:58;16.85;;;11.93;;
72388;SDS011;60566;48.062;9.930;2023-06-10T03:08:23;17.30;;;11.40;;
72388;SDS011;60566;48.062;9.930;2023-06-10T03:10:48;16.77;;;11.13;;
72388;SDS011;60566;48.062;9.930;2023-06-10T03:13:14;16.77;;;11.10;;
72388;SDS011;60566;48.062;9.930;2023-06-10T03:15:39;17.92;;;11.60;;
72388;SDS011;60566;48.062;9.930;2023-06-10T03:18:05;17.33;;;11.27;;
72388;SDS011;60566;48.062;9.930;2023-06-10T03:20:31;19.33;;;11.38;;
72388;SDS011;60566;48.062;9.930;2023-06-10T03:22:57;16.55;;;11.13;;
72388;SDS011;60566;48.062;9.930;2023-06-10T03:25:22;19.17;;;11.88;;
72388;SDS011;60566;48.062;9.930;2023-06-10T03:27:47;18.00;;;10.90;;
72388;SDS011;60566;48.062;9.930;2023-06-10T03:30:13;16.42;;;11.13;;
72388;SDS011;60566;48.062;9.930;2023-06-10T03:32:39;15.07;;;10.63;;
72388;SDS011;60566;48.062;9.930;2023-06-10T03:35:04;18.05;;;12.00;;
72388;SDS011;60566;48.062;9.930;2023-06-10T03:37:32;20.30;;;12.27;;
72388;SDS011;60566;48.062;9.930;2023-06-10T03:39:57;20.73;;;13.00;;
72388;SDS011;60566;48.062;9.930;2023-06-10T03:42:23;18.40;;;12.68;;
72388;SDS011;60566;48.062;9.930;2023-06-10T03:44:48;19.15;;;12.50;;
72388;SDS011;60566;48.062;9.930;2023-06-10T03:47:14;16.70;;;12.02;;
72388;SDS011;60566;48.062;9.930;2023-06-10T03:49:39;17.13;;;11.10;;
72388;SDS011;60566;48.062;9.930;2023-06-10T03:52:05;19.52;;;11.98;;
72388;SDS011;60566;48.062;9.930;2023-06-10T03:54:32;17.30;;;11.27;;
72388;SDS011;60566;48.062;9.930;2023-06-10T03:56:57;17.50;;;11.20;;
72388;SDS011;60566;48.062;9.930;2023-06-10T03:59:22;19.23;;;12.38;;
72388;SDS011;60566;48.062;9.930;2023-06-10T04:01:48;17.52;;;11.35;;
72388;SDS011;60566;48.062;9.930;2023-06-10T04:04:13;18.00;;;11.93;;
72388;SDS011;60566;48.062;9.930;2023-06-10T04:06:39;17.08;;;12.05;;
72388;SDS011;60566;48.062;9.930;2023-06-10T04:09:04;18.45;;;12.15;;
72388;SDS011;60566;48.062;9.930;2023-06-10T04:11:31;17.10;;;11.27;;
72388;SDS011;60566;48.062;9.930;2023-06-10T04:13:56;18.33;;;11.52;;
72388;SDS011;60566;48.062;9.930;2023-06-10T04:16:22;18.00;;;11.57;;
72388;SDS011;60566;48.062;9.930;2023-06-10T04:18:47;19.08;;;11.63;;
72388;SDS011;60566;48.062;9.930;2023-06-10T04:21:12;18.38;;;11.68;;
72388;SDS011;60566;48.062;9.930;2023-06-10T04:23:38;20.65;;;12.52;;
72388;SDS011;60566;48.062;9.930;2023-06-10T04:26:03;16.77;;;12.35;;
72388;SDS011;60566;48.062;9.930;2023-06-10T04:28:30;17.45;;;11.35;;
72388;SDS011;60566;48.062;9.930;2023-06-10T04:30:56;20.30;;;12.23;;
72388;SDS011;60566;48.062;9.930;2023-06-10T04:33:21;22.20;;;12.77;;
72388;SDS011;60566;48.062;9.930;2023-06-10T04:35:46;21.98;;;12.60;;
72388;SDS011;60566;48.062;9.930;2023-06-10T04:38:12;19.17;;;12.43;;
72388;SDS011;60566;48.062;9.930;2023-06-10T04:40:37;20.17;;;12.18;;
72388;SDS011;60566;48.062;9.930;2023-06-10T04:43:03;19.05;;;12.23;;
72388;SDS011;60566;48.062;9.930;2023-06-10T04:45:30;19.60;;;12.25;;
72388;SDS011;60566;48.062;9.930;2023-06-10T04:47:55;19.63;;;13.30;;
72388;SDS011;60566;48.062;9.930;2023-06-10T04:50:20;18.98;;;11.98;;
72388;SDS011;60566;48.062;9.930;2023-06-10T04:52:46;19.48;;;13.07;;
72388;SDS011;60566;48.062;9.930;2023-06-10T04:55:11;21.20;;;12.65;;
72388;SDS011;60566;48.062;9.930;2023-06-10T04:57:36;21.17;;;13.13;;
72388;SDS011;60566;48.062;9.930;2023-06-10T05:00:02;20.80;;;13.00;;
72388;SDS011;60566;48.062;9.930;2023-06-10T05:02:29;21.63;;;12.75;;
72388;SDS011;60566;48.062;9.930;2023-06-10T05:04:55;18.98;;;12.70;;
72388;SDS011;60566;48.062;9.930;2023-06-10T05:07:20;19.85;;;13.02;;
72388;SDS011;60566;48.062;9.930;2023-06-10T05:09:45;22.50;;;13.32;;
72388;SDS011;60566;48.062;9.930;2023-06-10T05:12:11;18.02;;;12.63;;
72388;SDS011;60566;48.062;9.930;2023-06-10T05:14:36;21.88;;;12.68;;
72388;SDS011;60566;48.062;9.930;2023-06-10T05:17:02;20.85;;;12.48;;
72388;SDS011;60566;48.062;9.930;2023-06-10T05:19:28;23.13;;;13.38;;
72388;SDS011;60566;48.062;9.930;2023-06-10T05:21:54;20.08;;;12.45;;
72388;SDS011;60566;48.062;9.930;2023-06-10T05:24:19;22.15;;;12.60;;
72388;SDS011;60566;48.062;9.930;2023-06-10T05:26:45;20.85;;;12.95;;
72388;SDS011;60566;48.062;9.930;2023-06-10T05:29:10;21.23;;;12.95;;
72388;SDS011;60566;48.062;9.930;2023-06-10T05:31:35;22.58;;;12.85;;
72388;SDS011;60566;48.062;9.930;2023-06-10T05:34:01;20.40;;;13.07;;
72388;SDS011;60566;48.062;9.930;2023-06-10T05:36:27;20.15;;;12.60;;
72388;SDS011;60566;48.062;9.930;2023-06-10T05:38:53;20.70;;;11.98;;
72388;SDS011;60566;48.062;9.930;2023-06-10T05:41:18;20.05;;;11.48;;
72388;SDS011;60566;48.062;9.930;2023-06-10T05:43:44;20.40;;;12.45;;
72388;SDS011;60566;48.062;9.930;2023-06-10T05:46:09;21.25;;;12.57;;
72388;SDS011;60566;48.062;9.930;2023-06-10T05:48:34;20.23;;;12.75;;
72388;SDS011;60566;48.062;9.930;2023-06-10T05:51:00;19.02;;;11.98;;
72388;SDS011;60566;48.062;9.930;2023-06-10T05:53:26;21.27;;;12.45;;
72388;SDS011;60566;48.062;9.930;2023-06-10T05:55:52;18.35;;;12.05;;
72388;SDS011;60566;48.062;9.930;2023-06-10T05:58:17;38.10;;;12.95;;
72388;SDS011;60566;48.062;9.930;2023-06-10T06:00:43;17.90;;;11.27;;
72388;SDS011;60566;48.062;9.930;2023-06-10T06:03:08;17.95;;;11.45;;
72388;SDS011;60566;48.062;9.930;2023-06-10T06:05:33;18.55;;;10.35;;
72388;SDS011;60566;48.062;9.930;2023-06-10T06:07:59;18.23;;;11.40;;
72388;SDS011;60566;48.062;9.930;2023-06-10T06:10:25;95.85;;;17.92;;
72388;SDS011;60566;48.062;9.930;2023-06-10T06:12:51;18.17;;;11.20;;
72388;SDS011;60566;48.062;9.930;2023-06-10T06:15:16;19.95;;;11.57;;
72388;SDS011;60566;48.062;9.930;2023-06-10T06:17:41;20.35;;;12.10;;
72388;SDS011;60566;48.062;9.930;2023-06-10T06:20:07;20.13;;;11.75;;
72388;SDS011;60566;48.062;9.930;2023-06-10T06:22:33;25.48;;;12.45;;
72388;SDS011;60566;48.062;9.930;2023-06-10T06:24:58;16.98;;;11.02;;
72388;SDS011;60566;48.062;9.930;2023-06-10T06:27:25;19.02;;;11.30;;
72388;SDS011;60566;48.062;9.930;2023-06-10T06:29:50;22.08;;;11.10;;
72388;SDS011;60566;48.062;9.930;2023-06-10T06:32:16;18.00;;;11.15;;
72388;SDS011;60566;48.062;9.930;2023-06-10T06:34:41;17.92;;;11.80;;
72388;SDS011;60566;48.062;9.930;2023-06-10T06:37:06;18.90;;;12.00;;
72388;SDS011;60566;48.062;9.930;2023-06-10T06:39:32;17.30;;;10.85;;
72388;SDS011;60566;48.062;9.930;2023-06-10T06:41:57;17.85;;;11.32;;
72388;SDS011;60566;48.062;9.930;2023-06-10T06:44:24;41.67;;;13.23;;
72388;SDS011;60566;48.062;9.930;2023-06-10T06:46:49;17.90;;;11.73;;
72388;SDS011;60566;48.062;9.930;2023-06-10T06:49:14;17.40;;;11.60;;
72388;SDS011;60566;48.062;9.930;2023-06-10T06:51:40;18.88;;;11.93;;
72388;SDS011;60566;48.062;9.930;2023-06-10T06:54:05;16.75;;;10.77;;
72388;SDS011;60566;48.062;9.930;2023-06-10T06:56:31;19.70;;;11.52;;
72388;SDS011;60566;48.062;9.930;2023-06-10T06:58:56;18.40;;;11.38;;
72388;SDS011;60566;48.062;9.930;2023-06-10T07:01:23;19.48;;;10.52;;
72388;SDS011;60566;48.062;9.930;2023-06-10T07:03:48;19.10;;;12.20;;
72388;SDS011;60566;48.062;9.930;2023-06-10T07:06:13;80.20;;;14.23;;
72388;SDS011;60566;48.062;9.930;2023-06-10T07:08:39;19.80;;;11.38;;
72388;SDS011;60566;48.062;9.930;2023-06-10T07:11:04;15.23;;;10.00;;
72388;SDS011;60566;48.062;9.930;2023-06-10T07:13:30;18.00;;;10.10;;
72388;SDS011;60566;48.062;9.930;2023-06-10T07:15:55;16.17;;;10.40;;
72388;SDS011;60566;48.062;9.930;2023-06-10T07:18:22;16.38;;;10.40;;
72388;SDS011;60566;48.062;9.930;2023-06-10T07:20:47;15.13;;;9.88;;
72388;SDS011;60566;48.062;9.930;2023-06-10T07:23:12;15.02;;;9.30;;
72388;SDS011;60566;48.062;9.930;2023-06-10T07:25:38;14.40;;;9.48;;
72388;SDS011;60566;48.062;9.930;2023-06-10T07:28:03;14.63;;;9.18;;
72388;SDS011;60566;48.062;9.930;2023-06-10T07:30:29;14.55;;;9.07;;
72388;SDS011;60566;48.062;9.930;2023-06-10T07:32:54;14.88;;;9.27;;
72388;SDS011;60566;48.062;9.930;2023-06-10T07:35:21;13.82;;;9.52;;
72388;SDS011;60566;48.062;9.930;2023-06-10T07:37:46;15.70;;;9.93;;
72388;SDS011;60566;48.062;9.930;2023-06-10T07:40:12;15.48;;;9.15;;
72388;SDS011;60566;48.062;9.930;2023-06-10T07:42:37;13.45;;;9.32;;
72388;SDS011;60566;48.062;9.930;2023-06-10T07:45:02;14.07;;;8.45;;
72388;SDS011;60566;48.062;9.930;2023-06-10T07:47:29;13.80;;;8.93;;
72388;SDS011;60566;48.062;9.930;2023-06-10T07:49:54;13.25;;;8.65;;
72388;SDS011;60566;48.062;9.930;2023-06-10T07:52:21;17.23;;;8.63;;
72388;SDS011;60566;48.062;9.930;2023-06-10T07:54:46;13.23;;;8.07;;
72388;SDS011;60566;48.062;9.930;2023-06-10T07:57:11;12.85;;;8.38;;
72388;SDS011;60566;48.062;9.930;2023-06-10T07:59:37;12.05;;;8.07;;
72388;SDS011;60566;48.062;9.930;2023-06-10T08:02:03;12.80;;;8.18;;
72388;SDS011;60566;48.062;9.930;2023-06-10T08:04:28;38.33;;;9.00;;
72388;SDS011;60566;48.062;9.930;2023-06-10T08:06:54;13.32;;;8.55;;
72388;SDS011;60566;48.062;9.930;2023-06-10T08:09:21;13.18;;;8.00;;
72388;SDS011;60566;48.062;9.930;2023-06-10T08:11:46;17.08;;;8.93;;
72388;SDS011;60566;48.062;9.930;2023-06-10T08:14:12;13.10;;;7.45;;
72388;SDS011;60566;48.062;9.930;2023-06-10T08:16:37;13.30;;;8.77;;
72388;SDS011;60566;48.062;9.930;2023-06-10T08:19:02;11.75;;;7.75;;
72388;SDS011;60566;48.062;9.930;2023-06-10T08:21:28;12.38;;;8.13;;
72388;SDS011;60566;48.062;9.930;2023-06-10T08:23:53;13.25;;;8.13;;
72388;SDS011;60566;48.062;9.930;2023-06-10T08:26:20;12.57;;;7.60;;
72388;SDS011;60566;48.062;9.930;2023-06-10T08:28:45;11.77;;;7.38;;
72388;SDS011;60566;48.062;9.930;2023-06-10T08:31:11;12.48;;;7.85;;
72388;SDS011;60566;48.062;9.930;2023-06-10T08:33:36;10.82;;;6.70;;
72388;SDS011;60566;48.062;9.930;2023-06-10T08:36:02;13.30;;;7.95;;
72388;SDS011;60566;48.062;9.930;2023-06-10T08:38:27;12.95;;;7.63;;
72388;SDS011;60566;48.062;9.930;2023-06-10T08:40:53;11.00;;;6.43;;
72388;SDS011;60566;48.062;9.930;2023-06-10T08:43:25;10.00;;;6.20;;
72388;SDS011;60566;48.062;9.930;2023-06-10T08:45:54;10.40;;;6.15;;
72388;SDS011;60566;48.062;9.930;2023-06-10T08:48:23;11.55;;;6.53;;
72388;SDS011;60566;48.062;9.930;2023-06-10T08:50:48;11.45;;;6.93;;
72388;SDS011;60566;48.062;9.930;2023-06-10T08:53:16;12.73;;;7.63;;
72388;SDS011;60566;48.062;9.930;2023-06-10T08:55:43;10.82;;;7.00;;
72388;SDS011;60566;48.062;9.930;2023-06-10T08:58:16;11.65;;;6.97;;
72388;SDS011;60566;48.062;9.930;2023-06-10T09:00:48;9.80;;;6.53;;
72388;SDS011;60566;48.062;9.930;2023-06-10T09:03:13;10.90;;;6.82;;
72388;SDS011;60566;48.062;9.930;2023-06-10T09:05:39;10.57;;;6.53;;
72388;SDS011;60566;48.062;9.930;2023-06-10T09:08:06;10.80;;;6.55;;
72388;SDS011;60566;48.062;9.930;2023-06-10T09:10:31;9.63;;;5.13;;
72388;SDS011;60566;48.062;9.930;2023-06-10T09:12:57;24.88;;;6.45;;
72388;SDS011;60566;48.062;9.930;2023-06-10T09:15:23;9.68;;;6.70;;
72388;SDS011;60566;48.062;9.930;2023-06-10T09:17:49;17.85;;;6.93;;
72388;SDS011;60566;48.062;9.930;2023-06-10T09:20:15;9.20;;;6.07;;
72388;SDS011;60566;48.062;9.930;2023-06-10T09:22:41;9.18;;;5.82;;
72388;SDS011;60566;48.062;9.930;2023-06-10T09:25:07;11.32;;;6.45;;
72388;SDS011;60566;48.062;9.930;2023-06-10T09:27:40;8.95;;;5.65;;
72388;SDS011;60566;48.062;9.930;2023-06-10T09:30:09;9.80;;;6.65;;
72388;SDS011;60566;48.062;9.930;2023-06-10T09:32:37;12.18;;;6.70;;
72388;SDS011;60566;48.062;9.930;2023-06-10T09:35:05;11.48;;;7.35;;
72388;SDS011;60566;48.062;9.930;2023-06-10T09:37:34;10.27;;;6.90;;
72388;SDS011;60566;48.062;9.930;2023-06-10T09:40:03;9.75;;;6.53;;
72388;SDS011;60566;48.062;9.930;2023-06-10T09:42:32;11.18;;;7.35;;
72388;SDS011;60566;48.062;9.930;2023-06-10T09:44:58;10.10;;;6.82;;
72388;SDS011;60566;48.062;9.930;2023-06-10T09:47:23;9.27;;;5.65;;
72388;SDS011;60566;48.062;9.930;2023-06-10T09:49:48;8.68;;;5.57;;
72388;SDS011;60566;48.062;9.930;2023-06-10T09:52:15;9.35;;;6.32;;
72388;SDS011;60566;48.062;9.930;2023-06-10T09:54:46;9.57;;;6.00;;
72388;SDS011;60566;48.062;9.930;2023-06-10T09:57:12;9.75;;;5.28;;
72388;SDS011;60566;48.062;9.930;2023-06-10T09:59:37;8.13;;;5.82;;
72388;SDS011;60566;48.062;9.930;2023-06-10T10:02:03;8.70;;;5.47;;
72388;SDS011;60566;48.062;9.930;2023-06-10T10:04:28;9.25;;;5.85;;
72388;SDS011;60566;48.062;9.930;2023-06-10T10:06:54;35.75;;;6.25;;
72388;SDS011;60566;48.062;9.930;2023-06-10T10:09:21;8.18;;;5.00;;
72388;SDS011;60566;48.062;9.930;2023-06-10T10:11:46;9.52;;;5.65;;
72388;SDS011;60566;48.062;9.930;2023-06-10T10:14:12;11.52;;;6.90;;
72388;SDS011;60566;48.062;9.930;2023-06-10T10:16:39;9.10;;;5.68;;
72388;SDS011;60566;48.062;9.930;2023-06-10T10:19:07;8.13;;;5.47;;
72388;SDS011;60566;48.062;9.930;2023-06-10T10:21:34;7.93;;;5.10;;
72388;SDS011;60566;48.062;9.930;2023-06-10T10:24:05;8.70;;;5.50;;
72388;SDS011;60566;48.062;9.930;2023-06-10T10:26:35;8.32;;;5.53;;
72388;SDS011;60566;48.062;9.930;2023-06-10T10:29:07;10.02;;;5.53;;
72388;SDS011;60566;48.062;9.930;2023-06-10T10:31:35;9.90;;;5.80;;
72388;SDS011;60566;48.062;9.930;2023-06-10T10:34:02;7.80;;;5.13;;
72388;SDS011;60566;48.062;9.930;2023-06-10T10:36:29;7.88;;;5.18;;
72388;SDS011;60566;48.062;9.930;2023-06-10T10:38:55;6.90;;;4.80;;
72388;SDS011;60566;48.062;9.930;2023-06-10T10:41:21;9.05;;;5.03;;
72388;SDS011;60566;48.062;9.930;2023-06-10T10:43:49;9.20;;;5.75;;
72388;SDS011;60566;48.062;9.930;2023-06-10T10:46:16;7.47;;;5.25;;
72388;SDS011;60566;48.062;9.930;2023-06-10T10:48:42;11.35;;;6.30;;
72388;SDS011;60566;48.062;9.930;2023-06-10T10:51:08;10.35;;;5.53;;
72388;SDS011;60566;48.062;9.930;2023-06-10T10:53:33;9.25;;;5.80;;
72388;SDS011;60566;48.062;9.930;2023-06-10T10:55:59;14.10;;;5.40;;
72388;SDS011;60566;48.062;9.930;2023-06-10T10:58:25;7.85;;;5.22;;
72388;SDS011;60566;48.062;9.930;2023-06-10T11:00:51;7.95;;;5.50;;
72388;SDS011;60566;48.062;9.930;2023-06-10T11:03:17;11.95;;;5.13;;
72388;SDS011;60566;48.062;9.930;2023-06-10T11:05:43;7.85;;;4.85;;
72388;SDS011;60566;48.062;9.930;2023-06-10T11:08:09;7.25;;;4.97;;
72388;SDS011;60566;48.062;9.930;2023-06-10T11:10:35;6.90;;;4.43;;
72388;SDS011;60566;48.062;9.930;2023-06-10T11:13:05;7.93;;;5.13;;
72388;SDS011;60566;48.062;9.930;2023-06-10T11:15:31;7.00;;;4.45;;
72388;SDS011;60566;48.062;9.930;2023-06-10T11:18:07;8.93;;;4.88;;
72388;SDS011;60566;48.062;9.930;2023-06-10T11:23:34;7.75;;;4.65;;
72388;SDS011;60566;48.062;9.930;2023-06-10T11:26:12;10.48;;;4.20;;
72388;SDS011;60566;48.062;9.930;2023-06-10T11:28:39;7.28;;;3.70;;
72388;SDS011;60566;48.062;9.930;2023-06-10T11:31:04;7.10;;;4.00;;
72388;SDS011;60566;48.062;9.930;2023-06-10T11:33:32;6.45;;;4.30;;
72388;SDS011;60566;48.062;9.930;2023-06-10T11:35:57;7.63;;;5.00;;
72388;SDS011;60566;48.062;9.930;2023-06-10T11:38:23;6.22;;;4.15;;
72388;SDS011;60566;48.062;9.930;2023-06-10T11:40:48;7.80;;;4.55;;
72388;SDS011;60566;48.062;9.930;2023-06-10T11:43:14;7.15;;;4.70;;
72388;SDS011;60566;48.062;9.930;2023-06-10T11:45:40;5.85;;;3.95;;
72388;SDS011;60566;48.062;9.930;2023-06-10T11:48:06;6.93;;;4.13;;
72388;SDS011;60566;48.062;9.930;2023-06-10T11:50:33;6.10;;;3.75;;
72388;SDS011;60566;48.062;9.930;2023-06-10T11:52:58;5.90;;;3.45;;
72388;SDS011;60566;48.062;9.930;2023-06-10T11:55:24;7.50;;;4.05;;
72388;SDS011;60566;48.062;9.930;2023-06-10T11:57:50;15.07;;;4.05;;
72388;SDS011;60566;48.062;9.930;2023-06-10T12:00:16;7.65;;;3.85;;
72388;SDS011;60566;48.062;9.930;2023-06-10T12:02:42;11.77;;;4.38;;
72388;SDS011;60566;48.062;9.930;2023-06-10T12:05:10;6.80;;;3.85;;
72388;SDS011;60566;48.062;9.930;2023-06-10T12:07:37;9.35;;;4.05;;
72388;SDS011;60566;48.062;9.930;2023-06-10T12:10:03;6.80;;;3.33;;
72388;SDS011;60566;48.062;9.930;2023-06-10T12:12:29;8.38;;;3.67;;
72388;SDS011;60566;48.062;9.930;2023-06-10T12:14:55;6.53;;;3.83;;
72388;SDS011;60566;48.062;9.930;2023-06-10T12:17:21;11.65;;;3.80;;
72388;SDS011;60566;48.062;9.930;2023-06-10T12:19:47;7.80;;;3.92;;
72388;SDS011;60566;48.062;9.930;2023-06-10T12:22:13;12.90;;;4.22;;
72388;SDS011;60566;48.062;9.930;2023-06-10T12:24:44;7.00;;;3.97;;
72388;SDS011;60566;48.062;9.930;2023-06-10T12:27:10;6.90;;;4.35;;
72388;SDS011;60566;48.062;9.930;2023-06-10T12:29:36;5.82;;;3.80;;
72388;SDS011;60566;48.062;9.930;2023-06-10T12:32:02;5.82;;;4.25;;
72388;SDS011;60566;48.062;9.930;2023-06-10T12:34:29;6.78;;;4.32;;
72388;SDS011;60566;48.062;9.930;2023-06-10T12:37:01;7.45;;;4.43;;
72388;SDS011;60566;48.062;9.930;2023-06-10T12:39:27;6.22;;;4.30;;
72388;SDS011;60566;48.062;9.930;2023-06-10T12:41:54;7.13;;;4.43;;
72388;SDS011;60566;48.062;9.930;2023-06-10T12:44:28;6.95;;;3.90;;
72388;SDS011;60566;48.062;9.930;2023-06-10T12:46:54;5.97;;;3.97;;
72388;SDS011;60566;48.062;9.930;2023-06-10T12:49:19;6.05;;;3.78;;
72388;SDS011;60566;48.062;9.930;2023-06-10T12:51:45;6.55;;;3.90;;
72388;SDS011;60566;48.062;9.930;2023-06-10T12:54:10;9.60;;;3.83;;
72388;SDS011;60566;48.062;9.930;2023-06-10T12:56:35;6.43;;;3.90;;
72388;SDS011;60566;48.062;9.930;2023-06-10T12:59:02;6.25;;;4.32;;
72388;SDS011;60566;48.062;9.930;2023-06-10T13:01:27;9.57;;;3.95;;
72388;SDS011;60566;48.062;9.930;2023-06-10T13:03:53;5.30;;;3.33;;
72388;SDS011;60566;48.062;9.930;2023-06-10T13:06:18;5.88;;;3.90;;
72388;SDS011;60566;48.062;9.930;2023-06-10T13:08:44;6.70;;;3.92;;
72388;SDS011;60566;48.062;9.930;2023-06-10T13:11:09;8.05;;;4.57;;
72388;SDS011;60566;48.062;9.930;2023-06-10T13:13:36;6.80;;;4.65;;
72388;SDS011;60566;48.062;9.930;2023-06-10T13:16:03;7.35;;;4.68;;
72388;SDS011;60566;48.062;9.930;2023-06-10T13:18:28;6.50;;;4.40;;
72388;SDS011;60566;48.062;9.930;2023-06-10T13:20:54;6.88;;;4.20;;
72388;SDS011;60566;48.062;9.930;2023-06-10T13:23:19;7.25;;;4.85;;
72388;SDS011;60566;48.062;9.930;2023-06-10T13:25:45;7.20;;;4.32;;
72388;SDS011;60566;48.062;9.930;2023-06-10T13:28:10;7.82;;;4.18;;
72388;SDS011;60566;48.062;9.930;2023-06-10T13:30:35;6.03;;;3.97;;
72388;SDS011;60566;48.062;9.930;2023-06-10T13:33:02;7.30;;;4.18;;
72388;SDS011;60566;48.062;9.930;2023-06-10T13:35:27;6.07;;;3.92;;
72388;SDS011;60566;48.062;9.930;2023-06-10T13:37:53;5.90;;;3.95;;
72388;SDS011;60566;48.062;9.930;2023-06-10T13:40:18;11.95;;;4.45;;
72388;SDS011;60566;48.062;9.930;2023-06-10T13:42:44;7.75;;;3.75;;
72388;SDS011;60566;48.062;9.930;2023-06-10T13:45:09;6.07;;;4.20;;
72388;SDS011;60566;48.062;9.930;2023-06-10T13:47:34;8.27;;;4.43;;
72388;SDS011;60566;48.062;9.930;2023-06-10T13:50:01;6.45;;;4.32;;
72388;SDS011;60566;48.062;9.930;2023-06-10T13:52:26;7.45;;;4.70;;
72388;SDS011;60566;48.062;9.930;2023-06-10T13:54:52;32.70;;;5.22;;
72388;SDS011;60566;48.062;9.930;2023-06-10T13:57:17;26.90;;;5.53;;
72388;SDS011;60566;48.062;9.930;2023-06-10T13:59:42;7.35;;;5.32;;
72388;SDS011;60566;48.062;9.930;2023-06-10T14:02:08;8.27;;;5.38;;
72388;SDS011;60566;48.062;9.930;2023-06-10T14:04:33;7.82;;;4.97;;
72388;SDS011;60566;48.062;9.930;2023-06-10T14:07:00;14.18;;;5.32;;
72388;SDS011;60566;48.062;9.930;2023-06-10T14:09:25;7.10;;;5.07;;
72388;SDS011;60566;48.062;9.930;2023-06-10T14:11:51;6.43;;;4.15;;
72388;SDS011;60566;48.062;9.930;2023-06-10T14:14:16;6.22;;;3.97;;
72388;SDS011;60566;48.062;9.930;2023-06-10T14:16:41;9.77;;;4.15;;
72388;SDS011;60566;48.062;9.930;2023-06-10T14:19:07;8.32;;;5.03;;
72388;SDS011;60566;48.062;9.930;2023-06-10T14:21:32;6.97;;;4.43;;
72388;SDS011;60566;48.062;9.930;2023-06-10T14:23:59;7.60;;;4.15;;
72388;SDS011;60566;48.062;9.930;2023-06-10T14:26:24;6.40;;;4.10;;
72388;SDS011;60566;48.062;9.930;2023-06-10T14:28:50;7.03;;;4.60;;